Latest Coastal Weather Observations for Maria Island

IDT60701

Issued at 9:45 pm EDT Tuesday 21 October 2014 (issued every 10 minutes, with the page automatically refreshed every 10 minutes)

About coastal observations | Map of coastal stations | Coastal observations for TAS | Marine services | Other Formats
Station Details ID: 092124 Name: MARIA ISLAND (POINT LESUEUR) Lat: -42.66 Lon: 148.02 Height: 28.0 m
Data from the previous 72 hours. | See also: Recent months at Maria Island
Date/Time
EDT
Temp

°C
Wind Pressure Rain
since 9am
mm
Weather Cloud Vis
km
Sea
Height
m
Swell
Dir
 
Speed
knots
Gust
knots
hPa Trend Height
m
Period
s
Dir
21/09:30pm 13.2 NNE 22 27 1026.9 - 0.0 - - - - - - -
21/09:00pm 13.2 NNE 19 25 1027.0 - 0.0 - - - - - - -
21/08:30pm 13.2 N 16 19 1027.4 - 0.0 - - - - - - -
21/08:00pm 13.2 N 17 21 1027.5 - 0.0 - - - - - - -
21/07:30pm 13.4 N 14 18 1027.8 - 0.0 - - - - - - -
21/07:00pm 13.7 N 16 20 1027.8 - 0.0 - - - - - - -
21/06:30pm 14.0 NNE 14 17 1028.0 - 0.0 - - - - - - -
21/06:00pm 14.3 NNE 14 19 1028.0 - 0.0 - - - - - - -
21/05:30pm 14.5 N 17 22 1028.0 - 0.0 - - - - - - -
21/05:00pm 14.8 N 19 23 1028.1 - 0.0 - - - - - - -
21/04:30pm 15.2 N 17 21 1028.5 - 0.0 - - - - - - -
21/04:00pm 15.3 N 18 22 1028.9 - 0.0 - - - - - - -
21/03:30pm 15.3 N 19 23 1029.2 - 0.0 - - - - - - -
21/03:00pm 15.6 NNE 19 24 1029.6 - 0.0 - - - - - - -
21/02:30pm 15.7 N 19 23 1030.0 - 0.0 - - - - - - -
21/02:00pm 15.4 N 19 22 1030.5 - 0.0 - - - - - - -
21/01:30pm 15.6 N 17 21 1031.1 - 0.0 - - - - - - -
21/01:00pm 15.8 N 15 19 1031.6 - 0.0 - - - - - - -
21/12:30pm 15.4 N 17 20 1031.7 - 0.0 - - - - - - -
21/12:00pm 14.6 N 19 23 1032.0 - 0.0 - - - - - - -
21/11:30am 14.0 N 19 23 1032.6 - 0.0 - - - - - - -
21/11:00am 14.0 N 17 20 1033.0 - 0.0 - - - - - - -
21/10:30am 13.6 N 13 15 1033.5 - 0.0 - - - - - - -
21/10:00am 13.3 N 12 13 1033.7 - 0.0 - - - - - - -
21/09:30am 12.3 N 8 10 1033.9 - 0.0 - - - - - - -
21/09:00am 11.6 N 7 9 1034.0 - 0.0 - - - - - - -
21/08:30am 10.6 N 7 8 1034.0 - 0.0 - - - - - - -
21/08:00am 10.2 N 9 10 1034.0 - 0.0 - - - - - - -
21/07:30am 9.9 N 7 8 1034.0 - 0.0 - - - - - - -
21/07:00am 9.2 NNW 8 9 1033.9 - 0.0 - - - - - - -
21/06:30am 8.7 N 7 9 1033.7 - 0.0 - - - - - - -
21/06:00am 8.5 NNW 6 7 1033.6 - 0.0 - - - - - - -
21/05:30am 8.9 NNW 10 12 1033.2 - 0.0 - - - - - - -
21/05:00am 8.8 NNW 8 9 1032.9 - 0.0 - - - - - - -
21/04:30am 8.3 NW 6 7 1033.1 - 0.0 - - - - - - -
21/04:00am 8.9 NNW 6 7 1033.0 - 0.0 - - - - - - -
21/03:30am 8.4 NW 6 7 1033.1 - 0.0 - - - - - - -
21/03:00am 8.9 NW 6 8 1033.4 - 0.0 - - - - - - -
21/02:30am 8.5 NNE 4 6 1033.5 - 0.0 - - - - - - -
21/02:00am 8.9 NE 7 8 1033.4 - 0.0 - - - - - - -
21/01:30am 8.8 NE 6 6 1033.9 - 0.0 - - - - - - -
21/01:00am 9.3 ENE 6 7 1034.2 - 0.0 - - - - - - -
21/12:30am 9.4 ENE 4 4 1034.5 - 0.0 - - - - - - -
21/12:00am 9.8 ENE 5 6 1034.8 - 0.0 - - - - - - -
 
Date/Time
EDT
Temp

°C
Wind Pressure Rain
since 9am
mm
Weather Cloud Vis
km
Sea
Height
m
Swell
Dir
 
Speed
knots
Gust
knots
hPa Trend Height
m
Period
s
Dir
20/11:30pm 9.7 NE 3 4 1035.2 - 0.0 - - - - - - -
20/11:00pm 9.6 ENE 2 3 1035.5 - 0.0 - - - - - - -
20/10:30pm 9.3 ENE 3 4 1035.6 - 0.0 - - - - - - -
20/10:00pm 9.1 ENE 3 4 1035.6 - 0.0 - - - - - - -
20/09:30pm 9.3 ESE 4 5 1035.4 - 0.0 - - - - - - -
20/09:00pm 9.6 ESE 6 7 1035.3 - 0.0 - - - - - - -
20/08:30pm 9.9 SE 6 7 1035.1 - 0.0 - - - - - - -
20/08:00pm 9.8 SE 6 7 1034.7 - 0.0 - - - - - - -
20/07:30pm 9.8 SE 7 9 1034.3 - 0.0 - - - - - - -
20/07:00pm 10.4 ESE 7 9 1034.2 - 0.0 - - - - - - -
20/06:30pm 10.7 ESE 8 10 1033.9 - 0.0 - - - - - - -
20/06:00pm 11.2 ESE 8 11 1033.7 - 0.0 - - - - - - -
20/05:30pm 11.5 E 10 12 1033.6 - 0.0 - - - - - - -
20/05:00pm 11.9 E 12 15 1033.4 - 0.0 - - - - - - -
20/04:30pm 12.1 E 12 18 1033.3 - 0.0 - - - - - - -
20/04:00pm 12.1 E 12 16 1033.1 - 0.0 - - - - - - -
20/03:30pm 12.5 SSE 7 10 1033.5 - 0.0 - - - - - - -
20/03:00pm 12.6 SSE 7 10 1033.5 - 0.0 - - - - - - -
20/02:30pm 13.3 S 10 13 1033.6 - 0.0 - - - - - - -
20/02:00pm 12.9 S 11 14 1033.7 - 0.0 - - - - - - -
20/01:30pm 12.9 S 12 14 1033.7 - 0.0 - - - - - - -
20/01:00pm 12.4 S 13 15 1033.7 - 0.0 - - - - - - -
20/12:30pm 12.6 SSW 11 13 1033.9 - 0.0 - - - - - - -
20/12:00pm 11.9 SSW 10 14 1034.0 - 0.0 - - - - - - -
20/11:30am 11.5 SSW 13 17 1033.9 - 0.0 - - - - - - -
20/11:00am 10.6 SSW 13 19 1034.0 - 0.0 - - - - - - -
20/10:30am 10.4 SSW 12 16 1033.9 - 0.0 - - - - - - -
20/10:00am 11.0 SW 15 18 1033.7 - 0.0 - - - - - - -
20/09:30am 10.4 SSW 13 16 1033.3 - 0.0 - - - - - - -
20/09:00am 9.6 SSW 11 15 1033.0 - 2.2 - - - - - - -
20/08:30am 8.8 SW 7 10 1032.8 - 2.2 - - - - - - -
20/08:00am 8.5 SSW 18 23 1032.4 - 2.2 - - - - - - -
20/07:30am 8.8 SSW 18 21 1031.9 - 2.2 - - - - - - -
20/07:00am 7.9 W 10 13 1031.6 - 2.2 - - - - - - -
20/06:30am 8.4 SW 15 18 1031.1 - 2.2 - - - - - - -
20/06:00am 8.3 SSW 16 18 1030.4 - 2.2 - - - - - - -
20/05:30am 7.8 WSW 11 14 1030.1 - 2.2 - - - - - - -
20/05:00am 7.9 WSW 13 18 1029.7 - 2.2 - - - - - - -
20/04:30am 7.3 SW 10 15 1029.5 - 2.2 - - - - - - -
20/04:00am 7.5 WSW 11 14 1028.9 - 2.2 - - - - - - -
20/03:30am 8.1 SW 17 24 1028.5 - 2.2 - - - - - - -
20/03:00am 7.3 SW 17 25 1028.0 - 2.2 Recent precip. - - - - - -
20/02:30am 6.7 SW 16 19 1027.7 - 2.2 - - - - - - -
20/02:13am 5.6 SSW 17 19 1027.8 - 2.0 - - - - - - -
20/02:06am 6.2 S 30 32 1027.7 - 1.8 - - - - - - -
20/02:04am 7.7 SW 19 33 1027.7 - 1.6 - - - - - - -
20/02:00am 8.0 SW 16 22 1027.4 - 1.6 - - - - - - -
20/01:30am 8.1 SW 18 21 1027.0 - 1.6 - - - - - - -
20/01:00am 8.1 SW 20 27 1026.9 - 1.6 - - - - - - -
20/12:30am 8.1 SW 23 27 1026.3 - 1.6 - - - - - - -
20/12:00am 7.7 SW 25 32 1025.8 - 1.6 - - - - - - -
 
Date/Time
EDT
Temp

°C
Wind Pressure Rain
since 9am
mm
Weather Cloud Vis
km
Sea
Height
m
Swell
Dir
 
Speed
knots
Gust
knots
hPa Trend Height
m
Period
s
Dir
19/11:42pm 7.6 SW 34 44 1025.4 - 1.6 - - - - - - -
19/11:30pm 8.3 SSW 35 44 1025.2 - 1.6 - - - - - - -
19/11:29pm 8.5 SSW 34 44 1025.2 - 1.6 - - - - - - -
19/11:00pm 9.1 SSW 20 26 1024.9 - 1.6 - - - - - - -
19/10:30pm 8.7 SSW 26 30 1024.0 - 1.6 - - - - - - -
19/10:16pm 8.9 SW 26 36 1023.8 - 1.6 - - - - - - -
19/10:00pm 9.3 SW 23 31 1023.5 - 1.6 - - - - - - -
19/09:30pm 9.3 SW 26 32 1022.8 - 1.6 - - - - - - -
19/09:00pm 9.3 SW 27 31 1022.1 - 1.6 - - - - - - -
19/08:30pm 8.9 SSW 26 36 1021.4 - 1.6 - - - - - - -
19/08:19pm 8.7 SSW 25 36 1021.1 - 1.6 - - - - - - -
19/08:00pm 8.8 SSW 25 30 1021.0 - 1.6 - - - - - - -
19/07:30pm 8.7 SSW 30 35 1020.0 - 1.2 - - - - - - -
19/07:21pm 8.9 SSW 31 35 1019.5 - 1.0 - - - - - - -
19/07:02pm 10.3 SSW 20 31 1019.0 - 0.4 - - - - - - -
19/07:00pm 10.6 SW 18 21 1019.1 - 0.4 - - - - - - -
19/06:30pm 10.5 SSW 14 17 1018.0 - 0.4 - - - - - - -
19/06:00pm 10.3 SSW 12 14 1017.6 - 0.4 Recent precip. - - - - - -
19/05:30pm 10.4 SSW 18 23 1017.7 - 0.4 - - - - - - -
19/05:00pm 10.4 SSW 25 28 1017.0 - 0.0 - - - - - - -
19/04:30pm 10.8 SSW 28 32 1016.0 - 0.0 - - - - - - -
19/04:00pm 11.4 SSW 25 29 1015.5 - 0.0 - - - - - - -
19/03:30pm 11.7 SSW 25 28 1015.4 - 0.0 - - - - - - -
19/03:00pm 14.0 SSW 21 25 1015.5 - 0.0 - - - - - - -
19/02:30pm 15.3 SSW 17 20 1014.7 - 0.0 - - - - - - -
19/02:00pm 15.4 S 20 25 1014.7 - 0.0 - - - - - - -
19/01:50pm 15.3 S 16 23 1014.9 - 0.0 - - - - - - -
19/01:30pm 16.4 ESE 6 12 1014.5 - 0.0 - - - - - - -
19/01:00pm 16.0 ESE 8 13 1014.5 - 0.0 - - - - - - -
19/12:30pm 17.6 S 10 13 1014.4 - 0.0 - - - - - - -
19/12:00pm 19.5 NNE 3 7 1014.4 - 0.0 - - - - - - -
19/11:30am 18.7 N 6 8 1014.3 - 0.0 - - - - - - -
19/11:00am 17.8 N 8 8 1014.6 - 0.0 - - - - - - -
19/10:30am 16.4 N 9 10 1014.6 - 0.0 - - - - - - -
19/10:00am 17.5 N 10 12 1014.8 - 0.0 - - - - - - -
19/09:30am 16.7 N 11 13 1014.7 - 0.0 - - - - - - -
19/09:00am 15.3 N 12 13 1014.8 - 0.0 - - - - - - -
19/08:30am 14.7 N 13 14 1014.3 - 0.0 - - - - - - -
19/08:00am 14.4 NNW 12 15 1014.2 - 0.0 - - - - - - -
19/07:30am 14.3 NNW 17 18 1014.0 - 0.0 - - - - - - -
19/07:00am 14.3 NNW 16 18 1013.3 - 0.0 - - - - - - -
19/06:30am 14.4 NNW 19 22 1012.9 - 0.0 - - - - - - -
19/06:00am 14.6 N 24 27 1012.3 - 0.0 - - - - - - -
19/05:30am 14.5 N 22 26 1012.5 - 0.0 - - - - - - -
19/05:00am 14.4 N 22 25 1013.1 - 0.0 - - - - - - -
19/04:30am 14.0 N 22 26 1013.5 - 0.0 - - - - - - -
19/04:00am 14.1 N 22 24 1014.3 - 0.0 - - - - - - -
19/03:30am 14.2 N 18 21 1014.9 - 0.0 - - - - - - -
19/03:00am 14.4 NNW 19 22 1015.1 - 0.0 - - - - - - -
19/02:30am 15.2 NW 15 25 1014.9 - 0.0 - - - - - - -
19/02:27am 15.4 NW 15 25 1015.0 - 0.0 - - - - - - -
19/02:00am 15.8 NW 18 24 1014.9 - 0.0 - - - - - - -
19/01:30am 15.3 NW 13 15 1015.4 - 0.0 - - - - - - -
19/01:00am 14.5 NW 9 11 1015.7 - 0.0 - - - - - - -
19/12:30am 14.8 NNW 13 20 1015.8 - 0.0 - - - - - - -
19/12:27am 14.9 NNW 13 20 1015.8 - 0.0 - - - - - - -
19/12:00am 15.5 N 21 28 1015.4 - 0.0 - - - - - - -
 
Date/Time
EDT
Temp

°C
Wind Pressure Rain
since 9am
mm
Weather Cloud Vis
km
Sea
Height
m
Swell
Dir
 
Speed
knots
Gust
knots
hPa Trend Height
m
Period
s
Dir
18/11:30pm 14.5 N 20 23 1015.9 - 0.0 - - - - - - -
18/11:00pm 15.2 N 22 25 1016.0 - 0.0 - - - - - - -
18/10:30pm 14.8 N 18 22 1017.1 - 0.0 - - - - - - -
18/10:00pm 14.7 N 21 25 1017.4 - 0.0 - - - - - - -

Other Formats:

Comma delimited format used in spreadsheet applications
http://www.bom.gov.au/fwo/IDT60701/IDT60701.95988.axf

JavaScript Object Notation format (JSON) in row-major order
http://www.bom.gov.au/fwo/IDT60701/IDT60701.95988.json